Time;durP1;ratioP1;P1;durP2;ratioP2;P2;SDS_P1;SDS_P2;PMS_P1;PMS_P2;Temp;Humidity;BMP_temperature;BMP_pressure;BME280_temperature;BME280_humidity;BME280_pressure;Samples;Min_cycle;Max_cycle;Signal;HPM_P1;HPM_P2
2022/01/27 00:05:23;;;;;;;36.17;18.23;;;;;;;;;;4993314;28;20447;-73
2022/01/27 00:10:49;;;;;;;36.33;16.90;;;;;;;;;;4991726;28;20540;-74
2022/01/27 00:13:17;;;;;;;35.97;16.07;;;;;;;;;;4991370;28;20483;-72
2022/01/27 00:15:44;;;;;;;38.97;18.57;;;;;;;;;;4992796;28;20433;-69
2022/01/27 00:18:17;;;;;;;27.13;15.73;;;;;;;;;;4992176;28;20431;-75
2022/01/27 00:20:44;;;;;;;36.30;17.80;;;;;;;;;;4974822;28;20448;-71
2022/01/27 00:23:10;;;;;;;39.73;16.67;;;;;;;;;;4991222;28;20476;-69
2022/01/27 00:25:36;;;;;;;35.93;18.03;;;;;;;;;;4992048;28;20441;-74
2022/01/27 00:28:02;;;;;;;42.33;18.77;;;;;;;;;;4993150;28;21028;-73
2022/01/27 00:30:28;;;;;;;32.23;18.27;;;;;;;;;;4975050;28;20532;-75
2022/01/27 00:32:54;;;;;;;39.90;19.37;;;;;;;;;;4988994;28;20488;-75
2022/01/27 00:35:20;;;;;;;39.17;19.50;;;;;;;;;;4974400;28;20479;-74
2022/01/27 00:37:46;;;;;;;39.90;20.07;;;;;;;;;;4992556;28;20484;-76
2022/01/27 00:40:12;;;;;;;31.40;16.70;;;;;;;;;;4992151;28;20446;-71
2022/01/27 00:42:41;;;;;;;33.57;17.60;;;;;;;;;;4990026;28;20445;-69
2022/01/27 00:45:07;;;;;;;29.87;16.80;;;;;;;;;;4992378;28;20432;-68
2022/01/27 00:47:33;;;;;;;38.93;18.73;;;;;;;;;;4992700;28;20433;-71
2022/01/27 00:49:59;;;;;;;35.70;17.97;;;;;;;;;;4992185;28;20451;-71
2022/01/27 00:55:23;;;;;;;39.00;17.57;;;;;;;;;;4975087;28;20477;-73
2022/01/27 00:58:04;;;;;;;34.33;18.60;;;;;;;;;;4975059;28;20438;-75
2022/01/27 01:00:36;;;;;;;38.23;18.07;;;;;;;;;;4992220;28;20445;-70
2022/01/27 01:03:11;;;;;;;41.07;18.37;;;;;;;;;;4988832;28;20477;-70
2022/01/27 01:06:00;;;;;;;38.77;19.20;;;;;;;;;;4991593;28;20428;-73
2022/01/27 01:11:38;;;;;;;37.13;18.37;;;;;;;;;;4991454;28;20785;-73
2022/01/27 01:16:56;;;;;;;34.63;17.70;;;;;;;;;;4991529;28;20449;-75
2022/01/27 01:33:05;;;;;;;46.50;20.47;;;;;;;;;;4989278;28;20530;-71
2022/01/27 01:36:00;;;;;;;38.33;17.83;;;;;;;;;;4991818;28;20421;-65
2022/01/27 01:38:26;;;;;;;38.80;18.77;;;;;;;;;;4990981;28;20844;-68
2022/01/27 01:40:53;;;;;;;36.10;18.47;;;;;;;;;;4991506;28;20519;-66
2022/01/27 01:43:19;;;;;;;50.67;23.87;;;;;;;;;;4989622;28;20452;-68
2022/01/27 01:45:45;;;;;;;49.40;21.63;;;;;;;;;;4988274;28;20551;-71
2022/01/27 01:48:12;;;;;;;73.40;24.50;;;;;;;;;;4991758;28;20437;-69
2022/01/27 01:50:38;;;;;;;62.90;26.53;;;;;;;;;;4991051;28;20576;-66
2022/01/27 01:53:04;;;;;;;39.33;20.60;;;;;;;;;;4990180;28;20572;-67
2022/01/27 01:55:32;;;;;;;51.60;22.07;;;;;;;;;;4988511;28;20476;-67
2022/01/27 01:57:58;;;;;;;37.37;19.87;;;;;;;;;;4991060;28;20441;-65
2022/01/27 02:00:25;;;;;;;35.80;17.37;;;;;;;;;;4990471;28;20433;-72
2022/01/27 02:02:51;;;;;;;31.97;17.80;;;;;;;;;;4990756;28;20449;-66
2022/01/27 02:05:17;;;;;;;54.93;24.03;;;;;;;;;;4989562;28;20491;-71
2022/01/27 02:08:29;;;;;;;32.30;17.07;;;;;;;;;;4991029;28;20437;-66
2022/01/27 02:19:13;;;;;;;28.77;16.10;;;;;;;;;;4989725;28;20551;-70
2022/01/27 02:21:47;;;;;;;28.53;15.40;;;;;;;;;;4991025;28;20429;-72
2022/01/27 02:24:13;;;;;;;22.83;14.00;;;;;;;;;;4990978;28;20425;-70
2022/01/27 02:26:41;;;;;;;29.10;15.87;;;;;;;;;;4990559;28;20809;-65
2022/01/27 02:29:07;;;;;;;27.60;14.87;;;;;;;;;;4987782;28;20801;-66
2022/01/27 02:31:33;;;;;;;28.87;13.70;;;;;;;;;;4971423;28;20429;-67
2022/01/27 02:34:00;;;;;;;32.40;15.93;;;;;;;;;;4989174;28;20567;-68
2022/01/27 02:36:27;;;;;;;21.83;14.77;;;;;;;;;;4987572;28;20942;-69
2022/01/27 02:38:53;;;;;;;26.30;16.13;;;;;;;;;;4989522;28;20907;-70
2022/01/27 02:41:21;;;;;;;27.40;14.00;;;;;;;;;;4968908;28;20471;-65
2022/01/27 02:43:47;;;;;;;24.00;14.87;;;;;;;;;;4987018;28;20464;-68
2022/01/27 02:46:17;;;;;;;26.13;15.20;;;;;;;;;;4989985;28;20429;-69
2022/01/27 02:48:43;;;;;;;27.30;15.00;;;;;;;;;;4990403;28;20437;-69
2022/01/27 02:51:09;;;;;;;27.77;15.53;;;;;;;;;;4988140;28;20456;-67
2022/01/27 02:53:35;;;;;;;26.43;14.10;;;;;;;;;;4988154;28;21001;-67
2022/01/27 02:56:01;;;;;;;28.97;16.10;;;;;;;;;;4990037;28;20555;-65
2022/01/27 02:58:27;;;;;;;23.80;14.43;;;;;;;;;;4990002;28;20500;-67
2022/01/27 03:00:53;;;;;;;24.43;14.73;;;;;;;;;;4987510;28;20433;-69
2022/01/27 03:03:19;;;;;;;22.47;14.97;;;;;;;;;;4985723;28;20988;-67
2022/01/27 03:05:45;;;;;;;24.20;14.43;;;;;;;;;;4988899;28;20441;-70
2022/01/27 03:08:11;;;;;;;26.23;14.57;;;;;;;;;;4989792;28;20441;-66
2022/01/27 03:10:44;;;;;;;21.67;13.33;;;;;;;;;;4989074;28;20528;-67
2022/01/27 03:13:10;;;;;;;24.77;13.77;;;;;;;;;;4988024;28;20527;-70
2022/01/27 03:15:36;;;;;;;24.30;14.37;;;;;;;;;;4989157;28;20782;-69
2022/01/27 03:18:02;;;;;;;24.40;13.73;;;;;;;;;;4990081;28;20453;-68
2022/01/27 03:20:32;;;;;;;26.03;13.67;;;;;;;;;;4990481;28;20429;-68
2022/01/27 03:22:59;;;;;;;21.60;13.00;;;;;;;;;;4986730;28;20448;-68
2022/01/27 03:25:25;;;;;;;22.13;14.23;;;;;;;;;;4989266;28;20805;-69
2022/01/27 03:27:51;;;;;;;23.13;13.33;;;;;;;;;;4989962;28;20936;-69
2022/01/27 03:30:17;;;;;;;23.07;13.90;;;;;;;;;;4989562;28;20435;-69
2022/01/27 03:32:43;;;;;;;24.10;14.07;;;;;;;;;;4986510;28;21034;-69
2022/01/27 03:35:09;;;;;;;24.93;14.87;;;;;;;;;;4989720;28;21533;-68
2022/01/27 03:37:35;;;;;;;26.20;14.40;;;;;;;;;;4988863;28;20848;-65
2022/01/27 03:40:01;;;;;;;24.23;13.77;;;;;;;;;;4989672;28;20424;-69
2022/01/27 03:42:28;;;;;;;24.60;14.33;;;;;;;;;;4969222;28;20520;-72
2022/01/27 03:44:54;;;;;;;25.97;14.67;;;;;;;;;;4970750;28;21019;-66
2022/01/27 03:47:20;;;;;;;29.80;15.17;;;;;;;;;;4972416;28;20430;-66
2022/01/27 03:49:46;;;;;;;33.87;16.30;;;;;;;;;;4989607;28;20953;-70
2022/01/27 03:52:12;;;;;;;31.40;14.60;;;;;;;;;;4988372;28;20448;-68
2022/01/27 03:54:38;;;;;;;24.87;15.07;;;;;;;;;;4984987;28;20552;-66
2022/01/27 03:57:04;;;;;;;23.43;14.00;;;;;;;;;;4989111;28;20433;-71
2022/01/27 03:59:30;;;;;;;27.60;13.80;;;;;;;;;;4989413;28;20448;-66
2022/01/27 04:01:57;;;;;;;28.77;14.73;;;;;;;;;;4989517;28;20441;-66
2022/01/27 04:04:24;;;;;;;26.10;13.70;;;;;;;;;;4986558;28;20527;-71
2022/01/27 04:06:52;;;;;;;25.23;15.90;;;;;;;;;;4989194;28;20464;-65
2022/01/27 04:09:18;;;;;;;27.23;13.87;;;;;;;;;;4988498;28;20792;-68
2022/01/27 04:11:44;;;;;;;29.03;14.47;;;;;;;;;;4989822;28;20929;-65
2022/01/27 04:14:10;;;;;;;23.83;13.47;;;;;;;;;;4986430;28;20500;-71
2022/01/27 04:16:37;;;;;;;31.20;14.37;;;;;;;;;;4987638;28;20984;-67
2022/01/27 04:19:03;;;;;;;30.90;15.60;;;;;;;;;;4968382;28;20441;-69
2022/01/27 04:21:29;;;;;;;28.60;15.47;;;;;;;;;;4985657;28;20437;-67
2022/01/27 04:23:55;;;;;;;30.40;13.90;;;;;;;;;;4989408;28;20437;-65
2022/01/27 04:26:27;;;;;;;28.10;14.87;;;;;;;;;;4988955;28;20447;-71
2022/01/27 04:28:54;;;;;;;21.70;12.20;;;;;;;;;;4987965;28;20449;-69
2022/01/27 04:31:21;;;;;;;28.07;14.43;;;;;;;;;;4987460;28;20461;-67
2022/01/27 04:33:47;;;;;;;26.43;13.73;;;;;;;;;;4989415;28;20571;-68
2022/01/27 04:36:23;;;;;;;31.63;15.00;;;;;;;;;;4989646;28;20495;-66
2022/01/27 04:41:39;;;;;;;25.07;14.07;;;;;;;;;;4987254;28;20971;-69
2022/01/27 04:44:21;;;;;;;26.07;13.13;;;;;;;;;;4992659;28;20949;-71
2022/01/27 04:49:48;;;;;;;23.30;13.23;;;;;;;;;;4912950;29;20540;-66
2022/01/27 04:52:14;;;;;;;29.63;15.07;;;;;;;;;;4975797;28;20468;-66
2022/01/27 04:54:58;;;;;;;24.37;12.57;;;;;;;;;;4988807;28;20456;-70
2022/01/27 04:57:26;;;;;;;25.90;12.90;;;;;;;;;;4992363;28;20472;-66
2022/01/27 04:59:52;;;;;;;28.17;13.90;;;;;;;;;;4992429;28;20468;-67
2022/01/27 05:02:29;;;;;;;34.30;14.93;;;;;;;;;;4990370;28;20472;-67
2022/01/27 05:04:55;;;;;;;23.70;12.33;;;;;;;;;;4990460;28;20472;-71
2022/01/27 05:07:21;;;;;;;26.10;13.13;;;;;;;;;;4992018;28;20433;-66
2022/01/27 05:09:54;;;;;;;26.30;14.13;;;;;;;;;;4974276;28;20439;-65
2022/01/27 05:12:34;;;;;;;24.13;13.13;;;;;;;;;;4991881;28;20505;-67
2022/01/27 05:15:00;;;;;;;25.77;13.50;;;;;;;;;;4969816;28;20457;-69
2022/01/27 05:17:26;;;;;;;16.77;11.43;;;;;;;;;;4992403;28;20984;-71
2022/01/27 05:19:52;;;;;;;26.53;13.67;;;;;;;;;;4991672;28;20472;-69
2022/01/27 05:22:18;;;;;;;22.03;12.83;;;;;;;;;;4991173;28;20479;-68
2022/01/27 05:24:44;;;;;;;22.97;12.43;;;;;;;;;;4987635;28;20463;-69
2022/01/27 05:27:10;;;;;;;22.03;12.93;;;;;;;;;;4974813;28;20433;-68
2022/01/27 05:29:36;;;;;;;19.43;11.90;;;;;;;;;;4991764;28;20431;-71
2022/01/27 05:32:02;;;;;;;20.33;12.53;;;;;;;;;;4974596;28;20437;-66
2022/01/27 05:34:28;;;;;;;19.50;13.07;;;;;;;;;;4970294;28;20481;-70
2022/01/27 05:36:54;;;;;;;22.23;11.53;;;;;;;;;;4988241;28;20531;-69
2022/01/27 05:39:20;;;;;;;24.17;11.90;;;;;;;;;;4991454;28;20453;-67
2022/01/27 05:41:46;;;;;;;20.93;12.60;;;;;;;;;;4992081;28;20420;-69
2022/01/27 05:44:12;;;;;;;24.27;12.70;;;;;;;;;;4989542;28;20881;-68
2022/01/27 05:46:38;;;;;;;19.13;11.67;;;;;;;;;;4989632;28;20453;-70
2022/01/27 05:49:04;;;;;;;18.63;11.20;;;;;;;;;;4991604;28;20437;-69
2022/01/27 05:51:30;;;;;;;16.17;9.87;;;;;;;;;;4991100;28;20438;-65
2022/01/27 05:53:56;;;;;;;16.33;11.93;;;;;;;;;;4988780;28;20923;-67
2022/01/27 05:56:22;;;;;;;23.30;12.57;;;;;;;;;;4989000;28;20449;-71
2022/01/27 05:58:48;;;;;;;23.50;13.00;;;;;;;;;;4991295;28;20452;-66
2022/01/27 06:01:14;;;;;;;28.03;11.97;;;;;;;;;;4973535;28;20421;-72
2022/01/27 06:03:40;;;;;;;18.57;10.27;;;;;;;;;;4990618;28;20532;-68
2022/01/27 06:06:06;;;;;;;24.57;12.30;;;;;;;;;;4986978;28;20540;-70
2022/01/27 06:08:32;;;;;;;22.53;11.90;;;;;;;;;;4990739;28;20449;-66
2022/01/27 06:10:58;;;;;;;27.97;13.13;;;;;;;;;;4990808;28;20790;-69
2022/01/27 06:13:24;;;;;;;17.00;11.27;;;;;;;;;;4973580;28;20488;-71
2022/01/27 06:15:50;;;;;;;15.77;10.80;;;;;;;;;;4988125;28;20472;-65
2022/01/27 06:18:16;;;;;;;15.23;10.50;;;;;;;;;;4990533;28;20551;-65
2022/01/27 06:20:44;;;;;;;23.67;11.83;;;;;;;;;;4990479;28;20452;-70
2022/01/27 06:23:11;;;;;;;23.93;13.43;;;;;;;;;;4972670;28;20448;-66
2022/01/27 06:25:37;;;;;;;15.53;12.10;;;;;;;;;;4971113;28;20435;-66
2022/01/27 06:28:03;;;;;;;18.30;11.03;;;;;;;;;;4988860;28;20587;-68
2022/01/27 06:30:29;;;;;;;18.40;11.00;;;;;;;;;;4990196;28;20520;-68
2022/01/27 06:32:55;;;;;;;18.60;10.13;;;;;;;;;;4990520;28;20493;-71
2022/01/27 06:35:21;;;;;;;15.90;9.80;;;;;;;;;;4989057;28;20495;-70
2022/01/27 06:37:47;;;;;;;20.30;10.97;;;;;;;;;;4964362;28;20510;-70
2022/01/27 06:40:14;;;;;;;19.70;9.70;;;;;;;;;;4951610;29;20439;-71
2022/01/27 06:42:40;;;;;;;13.93;10.20;;;;;;;;;;4951837;29;20438;-67
2022/01/27 06:45:06;;;;;;;12.83;9.60;;;;;;;;;;4950470;29;20445;-65
2022/01/27 06:47:33;;;;;;;18.73;9.73;;;;;;;;;;4946882;29;20565;-69
2022/01/27 06:49:59;;;;;;;14.03;9.93;;;;;;;;;;4964386;28;20438;-67
2022/01/27 06:52:27;;;;;;;14.90;9.83;;;;;;;;;;4951222;29;20537;-71
2022/01/27 06:54:55;;;;;;;16.63;10.47;;;;;;;;;;4950944;28;20450;-64
2022/01/27 06:57:21;;;;;;;21.43;10.00;;;;;;;;;;4951379;28;20445;-67
2022/01/27 06:59:47;;;;;;;17.93;10.43;;;;;;;;;;4951475;29;20526;-65
2022/01/27 07:02:13;;;;;;;20.13;12.20;;;;;;;;;;4949722;29;20441;-67
2022/01/27 07:04:39;;;;;;;14.93;10.00;;;;;;;;;;4950391;28;20435;-65
2022/01/27 07:07:05;;;;;;;15.23;9.47;;;;;;;;;;4943402;29;20451;-67
2022/01/27 07:09:31;;;;;;;14.57;9.97;;;;;;;;;;4945815;29;20517;-66
2022/01/27 07:11:57;;;;;;;18.05;10.55;;;;;;;;;;4944916;28;20535;-68
2022/01/27 07:14:23;;;;;;;14.60;8.97;;;;;;;;;;4947069;29;20661;-68
2022/01/27 07:16:49;;;;;;;18.90;11.60;;;;;;;;;;4946967;28;20435;-65
2022/01/27 07:19:16;;;;;;;19.97;10.90;;;;;;;;;;4947501;29;20449;-64
2022/01/27 07:21:42;;;;;;;14.60;9.43;;;;;;;;;;4948384;29;20472;-66
2022/01/27 07:24:08;;;;;;;17.40;10.97;;;;;;;;;;4959714;28;20438;-66
2022/01/27 07:26:34;;;;;;;22.33;12.77;;;;;;;;;;4949388;29;20911;-70
2022/01/27 07:29:00;;;;;;;15.67;11.20;;;;;;;;;;4948336;29;21006;-69
2022/01/27 07:31:28;;;;;;;11.83;8.33;;;;;;;;;;4949210;29;20437;-69
2022/01/27 07:33:54;;;;;;;11.30;8.67;;;;;;;;;;4962955;28;20570;-66
2022/01/27 07:36:20;;;;;;;12.17;8.73;;;;;;;;;;4952486;28;20440;-71
2022/01/27 07:38:48;;;;;;;10.77;8.33;;;;;;;;;;4970016;28;20448;-72
2022/01/27 07:41:14;;;;;;;16.47;9.50;;;;;;;;;;4989189;28;20471;-66
2022/01/27 07:43:40;;;;;;;11.30;8.47;;;;;;;;;;4986640;28;20434;-68
2022/01/27 07:46:07;;;;;;;8.60;7.80;;;;;;;;;;4989009;28;20504;-68
2022/01/27 07:48:33;;;;;;;10.80;8.40;;;;;;;;;;4969974;28;20433;-67
2022/01/27 07:51:02;;;;;;;11.30;8.17;;;;;;;;;;4988898;28;20445;-73
2022/01/27 07:53:28;;;;;;;8.97;7.70;;;;;;;;;;4986204;28;20501;-65
2022/01/27 07:55:54;;;;;;;9.80;7.30;;;;;;;;;;4989224;28;20425;-66
2022/01/27 07:58:20;;;;;;;12.73;8.80;;;;;;;;;;4987248;28;20550;-65
2022/01/27 08:00:46;;;;;;;8.77;7.87;;;;;;;;;;4988413;28;20443;-65
2022/01/27 08:03:12;;;;;;;13.03;8.27;;;;;;;;;;4986390;28;21035;-65
2022/01/27 08:05:38;;;;;;;9.50;8.50;;;;;;;;;;4988980;28;20451;-66
2022/01/27 08:08:04;;;;;;;13.53;9.63;;;;;;;;;;4984722;28;20949;-65
2022/01/27 08:10:37;;;;;;;8.57;6.83;;;;;;;;;;4971628;28;20811;-65
2022/01/27 08:13:03;;;;;;;9.50;7.30;;;;;;;;;;4985353;28;20501;-70
2022/01/27 08:15:29;;;;;;;8.87;7.93;;;;;;;;;;4988579;28;20436;-68
2022/01/27 08:17:55;;;;;;;8.00;7.20;;;;;;;;;;4991448;28;20429;-66
2022/01/27 08:20:21;;;;;;;13.53;9.50;;;;;;;;;;4992278;28;20443;-71
2022/01/27 08:22:50;;;;;;;9.57;8.57;;;;;;;;;;4988895;28;20437;-67
2022/01/27 08:25:16;;;;;;;7.97;7.00;;;;;;;;;;4991615;28;20953;-65
2022/01/27 08:27:45;;;;;;;7.90;6.87;;;;;;;;;;4989051;28;20437;-67
2022/01/27 08:30:14;;;;;;;13.00;8.37;;;;;;;;;;4991843;28;20437;-70
2022/01/27 08:32:57;;;;;;;17.70;10.50;;;;;;;;;;4991042;28;20460;-64
2022/01/27 08:35:24;;;;;;;10.67;8.27;;;;;;;;;;4992556;28;20439;-66
2022/01/27 08:37:51;;;;;;;9.47;8.07;;;;;;;;;;4990160;28;20484;-68
2022/01/27 08:40:18;;;;;;;8.67;7.37;;;;;;;;;;4992778;28;20460;-66
2022/01/27 08:42:44;;;;;;;9.10;7.77;;;;;;;;;;4973271;28;20424;-69
2022/01/27 08:45:16;;;;;;;11.93;8.30;;;;;;;;;;4970900;28;20950;-68
2022/01/27 08:47:43;;;;;;;12.63;8.17;;;;;;;;;;4988870;28;20445;-69
2022/01/27 08:50:10;;;;;;;11.20;8.27;;;;;;;;;;4974612;28;20441;-67
2022/01/27 08:52:36;;;;;;;8.90;7.63;;;;;;;;;;4989726;28;20471;-67
2022/01/27 08:55:03;;;;;;;14.37;8.20;;;;;;;;;;4990658;28;20437;-66
2022/01/27 08:57:29;;;;;;;8.07;7.27;;;;;;;;;;4990562;28;20437;-65
2022/01/27 08:59:55;;;;;;;11.10;7.80;;;;;;;;;;4992013;28;20441;-68
2022/01/27 09:02:21;;;;;;;16.30;8.80;;;;;;;;;;4988723;28;20453;-66
2022/01/27 09:04:47;;;;;;;9.63;8.63;;;;;;;;;;4990538;28;20449;-65
2022/01/27 09:07:15;;;;;;;14.77;8.90;;;;;;;;;;4972603;28;20445;-65
2022/01/27 09:09:41;;;;;;;10.30;7.30;;;;;;;;;;4991938;28;21091;-69
2022/01/27 09:12:07;;;;;;;15.13;10.20;;;;;;;;;;4990001;28;20545;-68
2022/01/27 09:14:33;;;;;;;18.57;10.27;;;;;;;;;;4989712;28;20480;-65
2022/01/27 09:16:59;;;;;;;14.00;9.30;;;;;;;;;;4970927;28;20484;-68
2022/01/27 09:19:26;;;;;;;15.40;9.83;;;;;;;;;;4991860;28;20441;-66
2022/01/27 09:21:53;;;;;;;12.43;9.43;;;;;;;;;;4990085;28;20491;-68
2022/01/27 09:24:26;;;;;;;19.40;9.97;;;;;;;;;;4990921;28;20776;-71
2022/01/27 09:26:58;;;;;;;16.70;9.97;;;;;;;;;;4972014;28;20803;-70
2022/01/27 09:29:24;;;;;;;16.70;10.47;;;;;;;;;;4974043;28;20421;-68
2022/01/27 09:31:50;;;;;;;16.00;11.10;;;;;;;;;;4989546;28;20452;-66
2022/01/27 09:34:17;;;;;;;16.50;10.10;;;;;;;;;;4973821;28;20492;-66
2022/01/27 09:36:43;;;;;;;15.47;10.87;;;;;;;;;;4988835;28;20476;-65
2022/01/27 09:39:09;;;;;;;20.97;10.40;;;;;;;;;;4990281;28;20436;-64
2022/01/27 09:41:37;;;;;;;16.93;10.17;;;;;;;;;;4989686;28;20433;-65
2022/01/27 09:44:04;;;;;;;17.30;10.97;;;;;;;;;;4991438;28;20429;-65
2022/01/27 09:46:32;;;;;;;16.07;9.93;;;;;;;;;;4989115;28;20440;-67
2022/01/27 09:48:58;;;;;;;19.00;10.47;;;;;;;;;;4991480;28;20425;-65
2022/01/27 09:51:38;;;;;;;14.50;10.27;;;;;;;;;;4989010;28;20520;-71
2022/01/27 09:54:07;;;;;;;18.97;10.40;;;;;;;;;;4987764;28;20488;-65
2022/01/27 09:56:34;;;;;;;16.70;10.60;;;;;;;;;;4988574;28;20492;-69
2022/01/27 09:59:00;;;;;;;16.43;10.87;;;;;;;;;;4988952;28;20443;-66
2022/01/27 10:01:26;;;;;;;15.13;9.50;;;;;;;;;;4971030;28;20552;-66
2022/01/27 10:03:58;;;;;;;14.43;9.63;;;;;;;;;;4990673;28;20476;-66
2022/01/27 10:06:29;;;;;;;19.60;10.70;;;;;;;;;;4988926;28;20448;-65
2022/01/27 10:09:11;;;;;;;18.90;11.57;;;;;;;;;;4989690;28;20441;-65
2022/01/27 10:11:37;;;;;;;13.40;9.40;;;;;;;;;;4989418;28;20461;-65
2022/01/27 10:14:37;;;;;;;13.13;9.37;;;;;;;;;;4989993;28;20968;-66
2022/01/27 10:17:07;;;;;;;16.37;9.53;;;;;;;;;;4945476;28;20437;-66
2022/01/27 10:19:36;;;;;;;16.27;9.23;;;;;;;;;;4989917;28;20441;-70
2022/01/27 10:22:03;;;;;;;17.13;9.73;;;;;;;;;;4987591;28;20433;-68
2022/01/27 10:24:30;;;;;;;11.63;9.33;;;;;;;;;;4989978;28;20421;-70
2022/01/27 10:30:05;;;;;;;17.20;10.50;;;;;;;;;;4986031;28;20433;-66
2022/01/27 10:32:38;;;;;;;15.17;9.50;;;;;;;;;;4987822;28;20706;-69
2022/01/27 10:35:04;;;;;;;15.53;9.07;;;;;;;;;;4971898;28;20699;-65
2022/01/27 10:37:49;;;;;;;11.10;9.23;;;;;;;;;;4986494;28;20496;-65
2022/01/27 10:40:20;;;;;;;20.47;10.30;;;;;;;;;;4989690;28;20418;-65
2022/01/27 10:42:46;;;;;;;18.67;10.13;;;;;;;;;;4986574;28;20773;-72
2022/01/27 10:45:16;;;;;;;17.20;10.97;;;;;;;;;;4988013;28;20448;-67
2022/01/27 10:47:45;;;;;;;18.00;10.30;;;;;;;;;;4987016;28;20444;-73
2022/01/27 10:50:12;;;;;;;21.37;13.17;;;;;;;;;;4989354;28;20516;-68
2022/01/27 10:52:42;;;;;;;19.73;11.17;;;;;;;;;;4987134;28;20465;-66
2022/01/27 10:55:08;;;;;;;16.10;10.50;;;;;;;;;;4988449;28;20441;-68
2022/01/27 10:57:34;;;;;;;19.00;11.07;;;;;;;;;;4987866;28;20524;-67
2022/01/27 11:00:07;;;;;;;19.10;11.37;;;;;;;;;;4990129;28;20490;-66
2022/01/27 11:02:33;;;;;;;26.23;12.37;;;;;;;;;;4988532;28;20433;-66
2022/01/27 11:04:59;;;;;;;28.40;16.93;;;;;;;;;;4989832;28;20818;-66
2022/01/27 11:07:26;;;;;;;22.63;15.50;;;;;;;;;;4986871;28;20436;-69
2022/01/27 11:09:53;;;;;;;27.27;13.80;;;;;;;;;;4989811;28;20512;-66
2022/01/27 11:12:19;;;;;;;59.13;34.03;;;;;;;;;;4987651;28;20441;-67
2022/01/27 11:14:48;;;;;;;18.57;11.57;;;;;;;;;;4989267;28;20845;-67
2022/01/27 11:17:22;;;;;;;14.97;10.23;;;;;;;;;;4988819;28;20481;-67
2022/01/27 11:27:21;;;;;;;21.47;11.63;;;;;;;;;;4989437;28;20511;-68
2022/01/27 11:29:50;;;;;;;24.00;15.17;;;;;;;;;;4986295;28;20437;-67
2022/01/27 11:32:22;;;;;;;27.70;17.60;;;;;;;;;;4988810;28;20933;-71
2022/01/27 11:34:52;;;;;;;21.10;10.47;;;;;;;;;;4986182;28;20445;-71
2022/01/27 11:37:35;;;;;;;18.33;10.70;;;;;;;;;;4988386;28;20546;-66
2022/01/27 11:40:03;;;;;;;19.00;9.67;;;;;;;;;;4986819;28;20791;-69
2022/01/27 11:42:35;;;;;;;21.07;11.33;;;;;;;;;;4987573;28;20440;-69
2022/01/27 11:45:19;;;;;;;31.93;13.87;;;;;;;;;;4986468;28;20531;-66
2022/01/27 11:47:51;;;;;;;17.60;10.83;;;;;;;;;;4972232;28;20515;-66
2022/01/27 11:50:37;;;;;;;18.43;10.77;;;;;;;;;;4987357;28;20424;-66
2022/01/27 11:53:07;;;;;;;19.90;10.47;;;;;;;;;;4974970;28;20565;-67
2022/01/27 11:55:33;;;;;;;19.30;10.57;;;;;;;;;;4990401;28;20429;-69
2022/01/27 11:58:14;;;;;;;32.13;12.40;;;;;;;;;;4993493;28;20812;-67
2022/01/27 12:00:40;;;;;;;26.57;15.00;;;;;;;;;;4973842;28;20441;-66
2022/01/27 12:03:12;;;;;;;25.17;12.77;;;;;;;;;;4993368;28;20425;-66
2022/01/27 12:05:39;;;;;;;52.07;15.70;;;;;;;;;;4989627;28;20467;-68
2022/01/27 12:08:15;;;;;;;19.83;12.67;;;;;;;;;;4989190;28;20484;-65
2022/01/27 12:10:51;;;;;;;31.10;15.90;;;;;;;;;;4989323;28;20437;-66
2022/01/27 12:13:36;;;;;;;35.07;12.90;;;;;;;;;;4974284;28;20472;-66
2022/01/27 12:16:22;;;;;;;29.07;14.33;;;;;;;;;;4972818;28;20444;-66
2022/01/27 12:19:08;;;;;;;27.47;16.27;;;;;;;;;;4991426;28;20429;-69
2022/01/27 12:21:36;;;;;;;24.67;11.93;;;;;;;;;;4989671;28;20441;-65
2022/01/27 12:24:29;;;;;;;26.43;12.87;;;;;;;;;;4988956;28;20467;-66
2022/01/27 12:26:55;;;;;;;49.17;23.63;;;;;;;;;;4972502;28;20428;-69
2022/01/27 12:29:33;;;;;;;26.03;13.53;;;;;;;;;;4989473;28;20434;-66
2022/01/27 12:32:01;;;;;;;28.33;16.07;;;;;;;;;;4973818;28;20425;-69
2022/01/27 12:34:29;;;;;;;50.73;16.43;;;;;;;;;;4988960;28;20570;-68
2022/01/27 12:36:58;;;;;;;31.27;14.67;;;;;;;;;;4989211;28;20480;-65
2022/01/27 12:39:25;;;;;;;44.23;22.37;;;;;;;;;;4988216;28;20515;-70
2022/01/27 12:41:51;;;;;;;23.70;13.33;;;;;;;;;;4990235;28;20571;-69
2022/01/27 12:44:17;;;;;;;28.57;14.90;;;;;;;;;;4971390;28;20801;-66
2022/01/27 12:47:02;;;;;;;35.30;21.93;;;;;;;;;;4990387;28;20460;-66
2022/01/27 12:49:36;;;;;;;32.97;18.30;;;;;;;;;;4987736;28;21000;-66
2022/01/27 12:52:05;;;;;;;19.80;13.57;;;;;;;;;;4990719;28;20417;-69
2022/01/27 12:54:32;;;;;;;18.13;10.90;;;;;;;;;;4988192;28;20476;-67
2022/01/27 12:56:57;;;;;;;41.57;25.40;;;;;;;;;;4990140;28;21000;-67
2022/01/27 12:59:24;;;;;;;21.20;14.10;;;;;;;;;;4987715;28;20515;-67
2022/01/27 13:02:07;;;;;;;32.43;21.03;;;;;;;;;;4989104;28;20498;-65
2022/01/27 13:04:33;;;;;;;59.53;25.07;;;;;;;;;;4988169;28;20444;-67
2022/01/27 13:07:01;;;;;;;21.57;14.67;;;;;;;;;;4977258;28;20442;-66
2022/01/27 13:09:28;;;;;;;25.23;12.80;;;;;;;;;;4984541;28;20950;-67
2022/01/27 13:11:56;;;;;;;24.10;15.83;;;;;;;;;;4990275;28;20456;-75
2022/01/27 13:14:22;;;;;;;16.13;10.70;;;;;;;;;;4987838;28;20891;-74
2022/01/27 13:16:58;;;;;;;16.57;10.60;;;;;;;;;;4991872;28;20417;-71
2022/01/27 13:19:40;;;;;;;18.73;12.07;;;;;;;;;;4970158;28;20876;-74
2022/01/27 13:22:09;;;;;;;26.30;12.10;;;;;;;;;;4990143;28;20436;-67
2022/01/27 13:24:43;;;;;;;22.57;12.60;;;;;;;;;;4988458;28;20925;-74
2022/01/27 13:27:11;;;;;;;24.63;13.03;;;;;;;;;;4989188;28;20440;-74
2022/01/27 13:29:45;;;;;;;21.17;11.00;;;;;;;;;;4987818;28;20925;-70
2022/01/27 13:32:12;;;;;;;19.47;12.00;;;;;;;;;;4988725;28;20519;-66
2022/01/27 13:34:42;;;;;;;17.23;12.03;;;;;;;;;;4988745;28;20534;-74
2022/01/27 13:37:08;;;;;;;33.77;12.40;;;;;;;;;;4988224;28;20503;-73
2022/01/27 13:42:13;;;;;;;23.57;11.30;;;;;;;;;;4987739;28;20441;-75
2022/01/27 13:44:55;;;;;;;21.27;11.70;;;;;;;;;;4971727;28;20441;-72
2022/01/27 13:47:25;;;;;;;20.33;10.20;;;;;;;;;;4988302;28;20437;-67
2022/01/27 13:49:51;;;;;;;21.83;11.77;;;;;;;;;;4989009;28;20449;-69
2022/01/27 13:52:18;;;;;;;13.67;9.00;;;;;;;;;;4991049;28;20425;-75
2022/01/27 13:54:45;;;;;;;16.57;10.63;;;;;;;;;;4971108;28;20865;-66
2022/01/27 13:57:27;;;;;;;15.53;12.27;;;;;;;;;;4989979;28;20428;-66
2022/01/27 13:59:58;;;;;;;19.17;11.03;;;;;;;;;;4972620;28;20437;-67
2022/01/27 14:02:26;;;;;;;16.87;10.17;;;;;;;;;;4988417;28;20437;-68
2022/01/27 14:04:53;;;;;;;19.87;10.77;;;;;;;;;;4971630;28;20488;-66
2022/01/27 14:07:29;;;;;;;12.90;9.77;;;;;;;;;;4984943;28;20472;-69
2022/01/27 14:09:56;;;;;;;11.27;9.30;;;;;;;;;;4990040;28;20429;-65
2022/01/27 14:12:30;;;;;;;17.83;9.50;;;;;;;;;;4988694;28;20444;-66
2022/01/27 14:14:57;;;;;;;17.70;9.87;;;;;;;;;;4972321;28;20456;-65
2022/01/27 14:17:23;;;;;;;15.20;9.63;;;;;;;;;;4988281;28;20430;-70
2022/01/27 14:19:50;;;;;;;27.63;10.17;;;;;;;;;;4984444;28;20511;-71
2022/01/27 14:22:17;;;;;;;24.17;11.30;;;;;;;;;;4986515;28;20504;-69
2022/01/27 14:25:08;;;;;;;16.83;9.30;;;;;;;;;;4989818;28;20445;-73
2022/01/27 14:27:39;;;;;;;11.60;8.40;;;;;;;;;;4969231;28;20452;-67
2022/01/27 14:30:06;;;;;;;33.93;10.73;;;;;;;;;;4971977;28;20429;-67
2022/01/27 14:32:33;;;;;;;10.27;7.93;;;;;;;;;;4988920;28;20441;-72
2022/01/27 14:34:59;;;;;;;10.63;8.00;;;;;;;;;;4989703;28;20460;-75
2022/01/27 14:37:25;;;;;;;9.23;8.10;;;;;;;;;;4987283;28;20511;-73
2022/01/27 14:39:51;;;;;;;13.97;8.13;;;;;;;;;;4989694;28;20480;-69
2022/01/27 14:42:21;;;;;;;9.67;7.93;;;;;;;;;;4987382;28;20455;-67
2022/01/27 14:44:47;;;;;;;13.20;7.90;;;;;;;;;;4989758;28;20441;-75
2022/01/27 14:47:13;;;;;;;10.00;7.77;;;;;;;;;;4987819;28;20431;-70
2022/01/27 14:49:42;;;;;;;15.20;8.20;;;;;;;;;;4989449;28;20519;-67
2022/01/27 14:52:13;;;;;;;8.43;7.17;;;;;;;;;;4987676;28;20425;-69
2022/01/27 14:54:39;;;;;;;17.40;8.07;;;;;;;;;;4989007;28;20546;-68
2022/01/27 14:57:05;;;;;;;9.13;7.90;;;;;;;;;;4986501;28;20441;-70
2022/01/27 14:59:31;;;;;;;13.67;7.60;;;;;;;;;;4989317;28;20805;-71
2022/01/27 15:01:57;;;;;;;8.80;7.33;;;;;;;;;;4969774;28;21495;-71
2022/01/27 15:04:23;;;;;;;17.40;7.30;;;;;;;;;;4971660;28;20524;-69
2022/01/27 15:06:49;;;;;;;17.43;9.23;;;;;;;;;;4986823;28;20441;-67
2022/01/27 15:09:15;;;;;;;12.90;9.23;;;;;;;;;;4988817;28;20500;-67
2022/01/27 15:11:41;;;;;;;13.27;9.53;;;;;;;;;;4987228;28;20949;-69
2022/01/27 15:19:37;;;;;;;11.30;9.20;;;;;;;;;;4988357;28;20820;-68
2022/01/27 15:22:06;;;;;;;10.03;7.73;;;;;;;;;;4987271;28;20456;-69
2022/01/27 15:24:32;;;;;;;9.90;8.37;;;;;;;;;;4990170;28;20581;-66
2022/01/27 15:26:59;;;;;;;29.83;9.87;;;;;;;;;;4968447;28;20928;-68
2022/01/27 15:29:25;;;;;;;19.93;8.77;;;;;;;;;;4989883;28;20437;-66
2022/01/27 15:31:52;;;;;;;12.83;8.13;;;;;;;;;;4986526;28;20444;-66